Time;durP1;ratioP1;P1;durP2;ratioP2;P2;SDS_P1;SDS_P2;PMS_P1;PMS_P2;Temp;Humidity;BMP_temperature;BMP_pressure;BME280_temperature;BME280_humidity;BME280_pressure;Samples;Min_cycle;Max_cycle;Signal;HPM_P1;HPM_P2
2022/07/31 00:01:03;;;;;;;;;;;14.70;99.90;;;;;;5053149;28;19916;-72
2022/07/31 00:03:29;;;;;;;;;;;14.70;99.90;;;;;;5049923;28;19931;-72
2022/07/31 00:05:54;;;;;;;;;;;14.60;99.90;;;;;;5053000;28;19916;-72
2022/07/31 00:08:20;;;;;;;;;;;14.50;99.90;;;;;;5052718;28;19968;-72
2022/07/31 00:10:45;;;;;;;;;;;14.50;99.90;;;;;;5052996;28;19913;-72
2022/07/31 00:13:11;;;;;;;;;;;14.40;99.90;;;;;;5051869;28;20317;-72
2022/07/31 00:15:36;;;;;;;;;;;14.40;99.90;;;;;;5052957;28;19920;-72
2022/07/31 00:18:02;;;;;;;;;;;14.40;99.90;;;;;;5053124;28;19908;-74
2022/07/31 00:20:27;;;;;;;;;;;14.40;99.90;;;;;;5054224;28;19909;-72
2022/07/31 00:22:53;;;;;;;;;;;14.40;99.90;;;;;;5054673;28;19909;-72
2022/07/31 00:25:19;;;;;;;;;;;14.40;99.90;;;;;;5054706;28;19909;-72
2022/07/31 00:27:44;;;;;;;;;;;14.40;99.90;;;;;;5055340;28;19940;-72
2022/07/31 00:30:13;;;;;;;;;;;14.60;99.90;;;;;;5054180;28;19912;-72
2022/07/31 00:32:39;;;;;;;;;;;14.90;99.90;;;;;;5055295;28;19920;-72
2022/07/31 00:35:05;;;;;;;;;;;14.90;99.90;;;;;;5054964;28;20278;-72
2022/07/31 00:37:33;;;;;;;;;;;14.90;99.90;;;;;;5052224;28;19912;-72
2022/07/31 00:39:59;;;;;;;;;;;14.70;99.90;;;;;;5054435;28;19956;-72
2022/07/31 00:42:25;;;;;;;;;;;14.70;99.90;;;;;;5055497;28;19935;-73
2022/07/31 00:44:51;;;;;;;;;;;14.90;99.90;;;;;;5055048;28;19913;-73
2022/07/31 00:47:17;;;;;;;;;;;15.10;99.90;;;;;;5054914;28;20015;-73
2022/07/31 00:49:43;;;;;;;;;;;15.10;99.90;;;;;;5056301;28;19933;-72
2022/07/31 00:52:08;;;;;;;;;;;15.10;99.90;;;;;;5053812;28;19916;-72
2022/07/31 00:54:34;;;;;;;;;;;14.90;99.90;;;;;;5051526;28;19935;-72
2022/07/31 00:57:00;;;;;;;;;;;14.90;99.90;;;;;;5056974;28;20431;-73
2022/07/31 00:59:26;;;;;;;;;;;14.90;99.90;;;;;;5055437;28;19909;-71
2022/07/31 01:01:51;;;;;;;;;;;14.90;99.90;;;;;;5054597;28;19983;-73
2022/07/31 01:04:17;;;;;;;;;;;14.90;99.90;;;;;;5054166;28;20012;-73
2022/07/31 01:06:43;;;;;;;;;;;14.80;99.90;;;;;;5054670;28;19954;-73
2022/07/31 01:09:09;;;;;;;;;;;14.60;99.90;;;;;;5054631;28;19917;-73
2022/07/31 01:11:46;;;;;;;;;;;14.40;99.90;;;;;;5052565;28;19909;-73
2022/07/31 01:14:12;;;;;;;;;;;14.30;99.90;;;;;;5053897;28;19952;-72
2022/07/31 01:16:45;;;;;;;;;;;14.30;99.90;;;;;;5052981;28;19908;-73
2022/07/31 01:19:30;;;;;;;;;;;14.30;99.90;;;;;;5056886;28;19951;-73
2022/07/31 01:21:56;;;;;;;;;;;14.40;99.90;;;;;;5051843;28;20381;-73
2022/07/31 01:24:40;;;;;;;;;;;14.50;99.90;;;;;;5051439;28;19931;-73
2022/07/31 01:27:24;;;;;;;;;;;14.40;99.90;;;;;;5045252;28;19924;-73
2022/07/31 01:29:52;;;;;;;;;;;14.30;99.90;;;;;;5053916;28;19912;-72
2022/07/31 01:32:26;;;;;;;;;;;14.20;99.90;;;;;;5050973;28;19956;-73
2022/07/31 01:34:56;;;;;;;;;;;14.10;99.90;;;;;;5051162;28;19909;-73
2022/07/31 01:37:28;;;;;;;;;;;14.10;99.90;;;;;;5051309;28;19913;-72
2022/07/31 01:40:03;;;;;;;;;;;14.10;99.90;;;;;;5051217;28;19909;-72
2022/07/31 01:42:29;;;;;;;;;;;14.00;99.90;;;;;;5051192;28;19963;-72
2022/07/31 01:44:56;;;;;;;;;;;13.80;99.90;;;;;;5050254;28;19909;-72
2022/07/31 01:47:22;;;;;;;;;;;13.60;99.90;;;;;;5050787;28;19970;-72
2022/07/31 01:49:48;;;;;;;;;;;13.70;99.90;;;;;;5051017;28;19913;-72
2022/07/31 01:52:14;;;;;;;;;;;13.70;99.90;;;;;;5050030;28;20011;-73
2022/07/31 01:54:40;;;;;;;;;;;13.70;99.90;;;;;;5048843;28;19996;-72
2022/07/31 01:57:06;;;;;;;;;;;13.70;99.90;;;;;;5057093;28;20373;-72
2022/07/31 01:59:33;;;;;;;;;;;13.60;99.90;;;;;;5050768;28;19959;-73
2022/07/31 02:01:59;;;;;;;;;;;13.50;99.90;;;;;;5050457;28;20431;-73
2022/07/31 02:04:25;;;;;;;;;;;13.50;99.90;;;;;;5050463;28;19915;-72
2022/07/31 02:06:51;;;;;;;;;;;13.40;99.90;;;;;;5050584;28;19909;-72
2022/07/31 02:09:18;;;;;;;;;;;13.40;99.90;;;;;;5050443;28;19970;-73
2022/07/31 02:11:44;;;;;;;;;;;13.40;99.90;;;;;;5050470;28;19909;-73
2022/07/31 02:14:10;;;;;;;;;;;13.30;99.90;;;;;;5050260;28;19958;-72
2022/07/31 02:16:36;;;;;;;;;;;13.30;99.90;;;;;;5051075;28;20003;-72
2022/07/31 02:19:04;;;;;;;;;;;13.30;99.90;;;;;;5050846;28;20403;-72
2022/07/31 02:21:29;;;;;;;;;;;13.20;99.90;;;;;;5050474;28;20056;-72
2022/07/31 02:23:56;;;;;;;;;;;13.10;99.90;;;;;;5048339;28;20007;-72
2022/07/31 02:26:22;;;;;;;;;;;13.00;99.90;;;;;;5052575;28;19917;-73
2022/07/31 02:28:47;;;;;;;;;;;13.00;99.90;;;;;;5052958;28;19908;-72
2022/07/31 02:31:15;;;;;;;;;;;12.90;99.90;;;;;;5050749;28;20015;-72
2022/07/31 02:33:42;;;;;;;;;;;12.80;99.90;;;;;;5050004;28;19913;-72
2022/07/31 02:36:08;;;;;;;;;;;12.80;99.90;;;;;;5050839;28;19909;-72
2022/07/31 02:38:34;;;;;;;;;;;12.80;99.90;;;;;;5047390;28;19920;-72
2022/07/31 02:41:02;;;;;;;;;;;12.70;99.90;;;;;;5050780;28;19947;-72
2022/07/31 02:43:29;;;;;;;;;;;12.70;99.90;;;;;;5049604;28;20366;-72
2022/07/31 02:45:56;;;;;;;;;;;12.70;99.90;;;;;;5050688;28;20382;-72
2022/07/31 02:48:22;;;;;;;;;;;12.70;99.90;;;;;;5050652;28;19912;-72
2022/07/31 02:50:48;;;;;;;;;;;12.70;99.90;;;;;;5050720;28;20378;-72
2022/07/31 02:53:14;;;;;;;;;;;12.60;99.90;;;;;;5046971;28;19913;-72
2022/07/31 02:55:42;;;;;;;;;;;12.60;99.90;;;;;;5055001;28;19909;-72
2022/07/31 02:58:07;;;;;;;;;;;12.70;99.90;;;;;;5050517;28;20460;-72
2022/07/31 03:00:33;;;;;;;;;;;12.80;99.90;;;;;;5050767;28;20163;-72
2022/07/31 03:02:58;;;;;;;;;;;12.80;99.90;;;;;;5049854;28;20353;-72
2022/07/31 03:05:24;;;;;;;;;;;12.70;99.90;;;;;;5049963;28;19916;-72
2022/07/31 03:07:50;;;;;;;;;;;12.70;99.90;;;;;;5049960;28;20400;-72
2022/07/31 03:10:15;;;;;;;;;;;12.70;99.90;;;;;;5050463;28;19916;-72
2022/07/31 03:12:49;;;;;;;;;;;12.60;99.90;;;;;;5053247;28;19948;-72
2022/07/31 03:15:16;;;;;;;;;;;12.70;99.90;;;;;;5032734;28;19910;-73
2022/07/31 03:17:42;;;;;;;;;;;12.60;99.90;;;;;;5053695;28;20415;-72
2022/07/31 03:20:08;;;;;;;;;;;12.60;99.90;;;;;;5053862;28;19912;-73
2022/07/31 03:22:34;;;;;;;;;;;12.60;99.90;;;;;;5053051;28;19908;-73
2022/07/31 03:25:00;;;;;;;;;;;12.50;99.90;;;;;;5053914;28;19909;-73
2022/07/31 03:27:26;;;;;;;;;;;12.50;99.90;;;;;;5053583;28;20375;-72
2022/07/31 03:29:53;;;;;;;;;;;12.50;99.90;;;;;;5052459;28;19966;-72
2022/07/31 03:32:19;;;;;;;;;;;12.50;99.90;;;;;;5053163;28;20212;-72
2022/07/31 03:34:45;;;;;;;;;;;12.40;99.90;;;;;;5053120;28;19935;-74
2022/07/31 03:37:10;;;;;;;;;;;12.40;99.90;;;;;;5053206;28;19909;-72
2022/07/31 03:39:35;;;;;;;;;;;12.30;99.90;;;;;;5053359;28;19909;-72
2022/07/31 03:42:02;;;;;;;;;;;12.30;99.90;;;;;;5047311;28;20394;-72
2022/07/31 03:44:27;;;;;;;;;;;12.30;99.90;;;;;;5052956;28;19909;-72
2022/07/31 03:46:53;;;;;;;;;;;12.40;99.90;;;;;;5053412;28;19963;-72
2022/07/31 03:49:19;;;;;;;;;;;12.40;99.90;;;;;;5053412;28;19929;-74
2022/07/31 03:51:45;;;;;;;;;;;12.50;99.90;;;;;;5053132;28;19909;-73
2022/07/31 03:54:10;;;;;;;;;;;12.60;99.90;;;;;;5052059;28;20003;-72
2022/07/31 03:56:37;;;;;;;;;;;12.60;99.90;;;;;;5053394;28;20050;-73
2022/07/31 03:59:02;;;;;;;;;;;12.50;99.90;;;;;;5053161;28;19959;-72
2022/07/31 04:01:28;;;;;;;;;;;12.50;99.90;;;;;;5052923;28;19908;-72
2022/07/31 04:04:00;;;;;;;;;;;12.50;99.90;;;;;;5052710;28;19912;-72
2022/07/31 04:06:25;;;;;;;;;;;12.50;99.90;;;;;;5053063;28;19935;-72
2022/07/31 04:08:51;;;;;;;;;;;12.50;99.90;;;;;;5052248;28;19929;-72
2022/07/31 04:11:16;;;;;;;;;;;12.50;99.90;;;;;;5052087;28;19962;-72
2022/07/31 04:13:42;;;;;;;;;;;12.50;99.90;;;;;;5052303;28;19955;-72
2022/07/31 04:16:07;;;;;;;;;;;12.50;99.90;;;;;;5052885;28;20035;-72
2022/07/31 04:18:33;;;;;;;;;;;12.50;99.90;;;;;;5052808;28;19995;-72
2022/07/31 04:20:58;;;;;;;;;;;12.50;99.90;;;;;;5051490;28;19915;-73
2022/07/31 04:23:24;;;;;;;;;;;12.60;99.90;;;;;;5048814;28;20003;-73
2022/07/31 04:25:49;;;;;;;;;;;12.60;99.90;;;;;;5051283;28;19963;-73
2022/07/31 04:28:15;;;;;;;;;;;12.60;99.90;;;;;;5052616;28;19960;-73
2022/07/31 04:30:40;;;;;;;;;;;12.70;99.90;;;;;;5052733;28;19908;-73
2022/07/31 04:33:06;;;;;;;;;;;12.70;99.90;;;;;;5051588;28;19995;-73
2022/07/31 04:35:31;;;;;;;;;;;12.80;99.90;;;;;;5052665;28;19920;-73
2022/07/31 04:37:57;;;;;;;;;;;13.00;99.90;;;;;;5052471;28;20374;-72
2022/07/31 04:40:25;;;;;;;;;;;13.10;99.90;;;;;;5052490;28;19956;-72
2022/07/31 04:42:50;;;;;;;;;;;13.10;99.90;;;;;;5052071;28;19909;-72
2022/07/31 04:45:16;;;;;;;;;;;13.20;99.90;;;;;;5052141;28;19920;-72
2022/07/31 04:47:41;;;;;;;;;;;13.20;99.90;;;;;;5045944;28;19920;-72
2022/07/31 04:50:07;;;;;;;;;;;13.30;99.90;;;;;;5052064;28;19997;-72
2022/07/31 04:52:33;;;;;;;;;;;13.40;99.90;;;;;;5051044;28;20370;-72
2022/07/31 04:54:59;;;;;;;;;;;13.50;99.90;;;;;;5049727;28;19916;-72
2022/07/31 04:57:25;;;;;;;;;;;13.70;99.90;;;;;;5052309;28;19912;-72
2022/07/31 04:59:50;;;;;;;;;;;13.90;99.90;;;;;;5051878;28;19940;-72
2022/07/31 05:02:16;;;;;;;;;;;14.10;99.90;;;;;;5051409;28;20002;-72
2022/07/31 05:04:41;;;;;;;;;;;14.30;99.90;;;;;;5051026;28;20297;-72
2022/07/31 05:07:07;;;;;;;;;;;14.50;99.90;;;;;;5051652;28;19915;-72
2022/07/31 05:09:34;;;;;;;;;;;14.60;99.90;;;;;;5051550;28;19920;-72
2022/07/31 05:12:00;;;;;;;;;;;14.80;99.90;;;;;;5051156;28;19924;-72
2022/07/31 05:14:26;;;;;;;;;;;15.00;99.90;;;;;;5051189;28;19908;-72
2022/07/31 05:16:51;;;;;;;;;;;15.20;99.90;;;;;;5051682;28;19913;-72
2022/07/31 05:19:17;;;;;;;;;;;15.40;99.90;;;;;;5051549;28;19908;-72
2022/07/31 05:21:43;;;;;;;;;;;15.60;99.90;;;;;;5051242;28;19909;-72
2022/07/31 05:24:08;;;;;;;;;;;15.70;99.90;;;;;;5056999;28;19999;-72
2022/07/31 05:26:34;;;;;;;;;;;15.90;99.90;;;;;;5057718;28;19963;-72
2022/07/31 05:29:01;;;;;;;;;;;16.00;99.90;;;;;;5051580;28;20373;-72
2022/07/31 05:31:27;;;;;;;;;;;16.20;99.90;;;;;;5051000;28;19913;-72
2022/07/31 05:33:53;;;;;;;;;;;16.30;99.90;;;;;;5050486;28;19913;-72
2022/07/31 05:36:18;;;;;;;;;;;16.40;99.90;;;;;;5051259;28;20325;-72
2022/07/31 05:38:44;;;;;;;;;;;16.50;99.90;;;;;;5051090;28;19940;-73
2022/07/31 05:41:10;;;;;;;;;;;16.60;99.90;;;;;;5051279;28;20371;-73
2022/07/31 05:43:36;;;;;;;;;;;16.90;99.90;;;;;;5049933;28;19909;-72
2022/07/31 05:46:02;;;;;;;;;;;17.00;99.90;;;;;;5051233;28;20409;-72
2022/07/31 05:48:28;;;;;;;;;;;17.10;99.90;;;;;;5051178;28;19908;-73
2022/07/31 05:50:53;;;;;;;;;;;17.30;99.90;;;;;;5051486;28;19989;-72
2022/07/31 05:53:19;;;;;;;;;;;17.30;99.90;;;;;;5048057;28;19913;-72
2022/07/31 05:55:45;;;;;;;;;;;17.20;99.90;;;;;;5056627;28;19908;-72
2022/07/31 05:58:11;;;;;;;;;;;17.20;99.90;;;;;;5049919;28;19908;-72
2022/07/31 06:00:37;;;;;;;;;;;17.20;99.90;;;;;;5051494;28;20328;-72
2022/07/31 06:03:04;;;;;;;;;;;17.30;99.90;;;;;;5050939;28;20510;-72
2022/07/31 06:05:30;;;;;;;;;;;17.40;99.90;;;;;;5051058;28;19909;-72
2022/07/31 06:07:55;;;;;;;;;;;17.60;99.90;;;;;;5044285;28;19912;-72
2022/07/31 06:10:21;;;;;;;;;;;17.60;99.90;;;;;;5051222;28;19913;-72
2022/07/31 06:12:46;;;;;;;;;;;17.60;99.90;;;;;;5050633;28;20011;-73
2022/07/31 06:15:12;;;;;;;;;;;17.60;99.90;;;;;;5050715;28;19909;-73
2022/07/31 06:17:38;;;;;;;;;;;17.70;99.90;;;;;;5051011;28;19992;-73
2022/07/31 06:20:04;;;;;;;;;;;17.80;99.90;;;;;;5051117;28;20290;-73
2022/07/31 06:22:29;;;;;;;;;;;18.00;99.90;;;;;;5050505;28;20344;-73
2022/07/31 06:24:55;;;;;;;;;;;18.10;99.90;;;;;;5048793;28;19915;-73
2022/07/31 06:27:21;;;;;;;;;;;18.20;99.90;;;;;;5050933;28;19912;-73
2022/07/31 06:29:46;;;;;;;;;;;18.30;99.90;;;;;;5051110;28;19966;-73
2022/07/31 06:32:12;;;;;;;;;;;18.30;99.90;;;;;;5050461;28;19912;-73
2022/07/31 06:34:37;;;;;;;;;;;18.30;99.90;;;;;;5048967;28;19908;-73
2022/07/31 06:37:03;;;;;;;;;;;18.50;99.90;;;;;;5043826;28;19909;-73
2022/07/31 06:39:28;;;;;;;;;;;18.50;99.90;;;;;;5051157;28;19908;-73
2022/07/31 06:41:54;;;;;;;;;;;18.80;99.90;;;;;;5050820;28;20310;-72
2022/07/31 06:44:19;;;;;;;;;;;19.00;99.90;;;;;;5050746;28;19909;-72
2022/07/31 06:46:45;;;;;;;;;;;19.00;99.90;;;;;;5053784;28;19912;-72
2022/07/31 06:49:11;;;;;;;;;;;19.20;99.90;;;;;;5054610;28;20447;-72
2022/07/31 06:51:37;;;;;;;;;;;19.30;99.90;;;;;;5053598;28;19920;-72
2022/07/31 06:54:03;;;;;;;;;;;19.40;99.90;;;;;;5058040;28;19938;-73
2022/07/31 06:56:29;;;;;;;;;;;19.40;99.90;;;;;;5057998;28;20007;-73
2022/07/31 06:58:55;;;;;;;;;;;19.60;99.90;;;;;;5054361;28;20011;-72
2022/07/31 07:01:20;;;;;;;;;;;20.10;99.90;;;;;;5053853;28;19963;-73
2022/07/31 07:03:46;;;;;;;;;;;20.30;99.90;;;;;;5053965;28;19916;-73
2022/07/31 07:06:12;;;;;;;;;;;20.50;99.90;;;;;;5054175;28;19909;-73
2022/07/31 07:08:37;;;;;;;;;;;20.60;99.90;;;;;;5052493;28;19916;-73
2022/07/31 07:11:03;;;;;;;;;;;20.70;99.90;;;;;;5052755;28;19945;-73
2022/07/31 07:13:29;;;;;;;;;;;21.10;99.90;;;;;;5053063;28;19919;-73
2022/07/31 07:15:55;;;;;;;;;;;21.60;99.90;;;;;;5053940;28;19916;-72
2022/07/31 07:18:21;;;;;;;;;;;22.00;99.90;;;;;;5053716;28;20358;-72
2022/07/31 07:20:47;;;;;;;;;;;22.10;99.90;;;;;;5047548;28;19955;-73
2022/07/31 07:23:12;;;;;;;;;;;22.10;99.90;;;;;;5051132;28;19909;-73
2022/07/31 07:25:38;;;;;;;;;;;22.20;99.90;;;;;;5059206;28;19915;-73
2022/07/31 07:28:03;;;;;;;;;;;22.90;99.90;;;;;;5054266;28;19909;-73
2022/07/31 07:30:29;;;;;;;;;;;22.90;99.90;;;;;;5053623;28;19959;-73
2022/07/31 07:32:54;;;;;;;;;;;23.70;99.90;;;;;;5053129;28;19919;-73
2022/07/31 07:35:21;;;;;;;;;;;24.30;99.90;;;;;;5053250;28;19966;-73
2022/07/31 07:37:46;;;;;;;;;;;25.60;98.50;;;;;;5052440;28;20054;-73
2022/07/31 07:40:12;;;;;;;;;;;26.50;95.80;;;;;;5052097;28;19913;-73
2022/07/31 07:42:38;;;;;;;;;;;25.80;96.50;;;;;;5053224;28;19909;-73
2022/07/31 07:45:03;;;;;;;;;;;24.60;98.10;;;;;;5052743;28;19996;-73
2022/07/31 07:47:29;;;;;;;;;;;24.80;97.40;;;;;;5053221;28;19909;-73
2022/07/31 07:49:54;;;;;;;;;;;24.40;99.10;;;;;;5053491;28;19909;-73
2022/07/31 07:52:20;;;;;;;;;;;25.00;97.30;;;;;;5053004;28;19908;-73
2022/07/31 07:54:46;;;;;;;;;;;25.40;94.40;;;;;;5057756;28;19909;-73
2022/07/31 07:57:15;;;;;;;;;;;24.70;97.00;;;;;;5053240;28;19919;-73
2022/07/31 07:59:40;;;;;;;;;;;24.90;98.30;;;;;;5053134;28;19916;-73
2022/07/31 08:02:06;;;;;;;;;;;24.70;98.60;;;;;;5052701;28;19909;-73
2022/07/31 08:04:31;;;;;;;;;;;25.00;96.90;;;;;;5052578;28;19917;-73
2022/07/31 08:06:57;;;;;;;;;;;25.60;94.50;;;;;;5053138;28;19915;-73
2022/07/31 08:09:23;;;;;;;;;;;25.80;94.00;;;;;;5052582;28;20298;-73
2022/07/31 08:11:48;;;;;;;;;;;25.90;94.60;;;;;;5052655;28;19909;-73
2022/07/31 08:14:14;;;;;;;;;;;25.70;89.30;;;;;;5050992;28;19943;-73
2022/07/31 08:16:40;;;;;;;;;;;25.10;91.30;;;;;;5051530;28;19908;-72
2022/07/31 08:19:05;;;;;;;;;;;24.90;91.20;;;;;;5052960;28;19912;-73
2022/07/31 08:21:31;;;;;;;;;;;24.70;94.40;;;;;;5052682;28;19908;-73
2022/07/31 08:23:57;;;;;;;;;;;24.60;96.60;;;;;;5051785;28;19912;-73
2022/07/31 08:26:22;;;;;;;;;;;24.20;95.70;;;;;;5057895;28;19909;-73
2022/07/31 08:28:48;;;;;;;;;;;23.90;96.90;;;;;;5052595;28;19917;-73
2022/07/31 08:31:14;;;;;;;;;;;25.70;93.00;;;;;;5052229;28;20382;-73
2022/07/31 08:33:39;;;;;;;;;;;27.20;84.00;;;;;;5045378;28;20015;-73
2022/07/31 08:36:07;;;;;;;;;;;27.90;81.50;;;;;;5052640;28;19980;-73
2022/07/31 08:38:34;;;;;;;;;;;29.00;81.70;;;;;;5052244;28;20313;-73
2022/07/31 08:41:00;;;;;;;;;;;29.20;73.80;;;;;;5052530;28;20111;-73
2022/07/31 08:43:26;;;;;;;;;;;29.10;81.50;;;;;;5051377;28;19909;-73
2022/07/31 08:45:51;;;;;;;;;;;29.70;70.50;;;;;;5051067;28;20032;-73
2022/07/31 08:48:20;;;;;;;;;;;30.50;73.40;;;;;;5051106;28;19951;-73
2022/07/31 08:50:46;;;;;;;;;;;30.80;70.00;;;;;;5052381;28;19955;-73
2022/07/31 08:53:14;;;;;;;;;;;30.90;69.60;;;;;;5049512;28;20625;-72
2022/07/31 08:55:42;;;;;;;;;;;31.10;69.50;;;;;;5046274;28;19951;-73
2022/07/31 08:58:07;;;;;;;;;;;31.00;68.70;;;;;;5052047;28;19916;-72
2022/07/31 09:00:33;;;;;;;;;;;31.20;67.20;;;;;;5051912;28;19913;-73
2022/07/31 09:02:59;;;;;;;;;;;31.20;64.70;;;;;;5050018;28;19909;-73
2022/07/31 09:05:25;;;;;;;;;;;31.70;68.60;;;;;;5051588;28;20309;-72
2022/07/31 09:07:50;;;;;;;;;;;30.90;60.40;;;;;;5051666;28;19913;-72
2022/07/31 09:10:19;;;;;;;;;;;31.10;66.10;;;;;;5051550;28;19909;-74
2022/07/31 09:12:44;;;;;;;;;;;30.60;59.10;;;;;;5051343;28;19913;-73
2022/07/31 09:15:26;;;;;;;;;;;31.30;65.00;;;;;;5051633;28;19919;-74
2022/07/31 09:17:52;;;;;;;;;;;31.90;61.90;;;;;;5051759;28;19915;-73
2022/07/31 09:20:23;;;;;;;;;;;32.00;58.60;;;;;;5051840;28;19909;-74
2022/07/31 09:23:01;;;;;;;;;;;31.90;63.20;;;;;;5044738;28;20416;-73
2022/07/31 09:25:27;;;;;;;;;;;31.90;56.30;;;;;;5045500;28;19915;-73
2022/07/31 09:27:59;;;;;;;;;;;32.50;59.30;;;;;;5051280;28;20011;-73
2022/07/31 09:30:25;;;;;;;;;;;32.90;59.50;;;;;;5051544;28;20083;-73
2022/07/31 09:32:51;;;;;;;;;;;33.30;59.80;;;;;;5050559;28;19944;-74
2022/07/31 09:35:16;;;;;;;;;;;33.70;56.60;;;;;;5050982;28;19955;-74
2022/07/31 09:37:45;;;;;;;;;;;34.20;58.90;;;;;;5050925;28;19913;-74
2022/07/31 09:40:10;;;;;;;;;;;33.30;52.50;;;;;;5050613;28;19909;-74
2022/07/31 09:42:42;;;;;;;;;;;32.90;63.80;;;;;;5048157;28;21063;-74
2022/07/31 09:45:17;;;;;;;;;;;33.70;58.50;;;;;;5051064;28;19909;-74
2022/07/31 09:47:43;;;;;;;;;;;32.60;59.20;;;;;;5051400;28;19913;-73
2022/07/31 09:50:09;;;;;;;;;;;30.30;61.00;;;;;;5047670;28;19971;-73
2022/07/31 09:52:34;;;;;;;;;;;30.60;63.50;;;;;;5050272;28;19920;-74
2022/07/31 09:55:07;;;;;;;;;;;32.50;59.70;;;;;;5044713;28;19932;-74
2022/07/31 09:57:40;;;;;;;;;;;34.30;58.70;;;;;;5050159;28;19913;-73
2022/07/31 10:00:06;;;;;;;;;;;33.80;56.70;;;;;;5051238;28;19916;-73
2022/07/31 10:02:34;;;;;;;;;;;32.90;58.00;;;;;;5051017;28;19931;-75
2022/07/31 10:04:59;;;;;;;;;;;33.90;58.20;;;;;;5050466;28;19909;-73
2022/07/31 10:07:26;;;;;;;;;;;32.10;57.40;;;;;;5051255;28;19916;-75
2022/07/31 10:09:53;;;;;;;;;;;32.00;59.90;;;;;;5051288;28;19916;-74
2022/07/31 10:12:19;;;;;;;;;;;31.30;62.10;;;;;;5050480;28;19930;-73
2022/07/31 10:14:45;;;;;;;;;;;32.10;61.00;;;;;;5050154;28;20469;-73
2022/07/31 10:17:14;;;;;;;;;;;32.00;59.80;;;;;;5050960;28;19979;-73
2022/07/31 10:19:40;;;;;;;;;;;31.60;62.30;;;;;;5050828;28;20508;-73
2022/07/31 10:22:08;;;;;;;;;;;31.80;60.00;;;;;;5053931;28;20648;-73
2022/07/31 10:24:39;;;;;;;;;;;30.40;60.50;;;;;;5055218;28;20031;-73
2022/07/31 10:27:05;;;;;;;;;;;29.90;61.50;;;;;;5060257;28;20571;-73
2022/07/31 10:29:30;;;;;;;;;;;29.70;70.30;;;;;;5054407;28;19948;-74
2022/07/31 10:31:56;;;;;;;;;;;30.90;58.80;;;;;;5054190;28;20337;-73
2022/07/31 10:34:22;;;;;;;;;;;29.70;57.50;;;;;;5054077;28;19921;-73
2022/07/31 10:36:49;;;;;;;;;;;30.70;62.90;;;;;;5053405;28;20286;-73
2022/07/31 10:39:23;;;;;;;;;;;31.70;60.30;;;;;;5054461;28;19924;-74
2022/07/31 10:41:58;;;;;;;;;;;32.90;58.30;;;;;;5054023;28;20173;-74
2022/07/31 10:44:32;;;;;;;;;;;32.70;56.70;;;;;;5053714;28;20378;-73
2022/07/31 10:46:58;;;;;;;;;;;31.30;57.10;;;;;;5054560;28;19948;-73
2022/07/31 10:49:40;;;;;;;;;;;29.90;57.80;;;;;;5054516;28;19944;-73
2022/07/31 10:52:05;;;;;;;;;;;29.20;63.60;;;;;;5054342;28;20008;-73
2022/07/31 10:54:58;;;;;;;;;;;28.00;64.30;;;;;;5053031;28;20007;-73
2022/07/31 10:57:25;;;;;;;;;;;28.20;65.80;;;;;;5055437;28;20408;-72
2022/07/31 10:59:50;;;;;;;;;;;27.40;64.20;;;;;;5053903;28;19971;-73
2022/07/31 11:02:32;;;;;;;;;;;27.50;68.10;;;;;;5054043;28;20011;-73
2022/07/31 11:05:14;;;;;;;;;;;27.60;67.80;;;;;;5053564;28;20435;-73
2022/07/31 11:07:43;;;;;;;;;;;27.60;68.70;;;;;;5047974;28;19912;-73
2022/07/31 11:10:10;;;;;;;;;;;27.40;66.10;;;;;;5054103;28;19913;-73
2022/07/31 11:12:35;;;;;;;;;;;28.20;66.30;;;;;;5053554;28;20083;-73
2022/07/31 11:15:01;;;;;;;;;;;27.50;67.00;;;;;;5053286;28;20376;-73
2022/07/31 11:17:35;;;;;;;;;;;27.30;64.40;;;;;;5053337;28;19917;-72
2022/07/31 11:20:01;;;;;;;;;;;27.40;70.20;;;;;;5048199;28;19916;-72
2022/07/31 11:22:27;;;;;;;;;;;28.30;66.30;;;;;;5053577;28;19978;-72
2022/07/31 11:24:57;;;;;;;;;;;29.90;65.30;;;;;;5059650;28;20369;-72
2022/07/31 11:27:30;;;;;;;;;;;30.90;60.60;;;;;;5053706;28;20007;-72
2022/07/31 11:30:02;;;;;;;;;;;30.90;56.50;;;;;;5053570;28;19915;-73
2022/07/31 11:32:28;;;;;;;;;;;31.20;58.40;;;;;;5052668;28;19913;-72
2022/07/31 11:34:54;;;;;;;;;;;30.80;58.50;;;;;;5052565;28;20371;-73
2022/07/31 11:37:25;;;;;;;;;;;30.90;57.10;;;;;;5053519;28;19995;-73
2022/07/31 11:39:51;;;;;;;;;;;30.80;60.60;;;;;;5053562;28;19915;-73
2022/07/31 11:42:17;;;;;;;;;;;31.10;57.00;;;;;;5053202;28;20385;-74
2022/07/31 11:44:43;;;;;;;;;;;30.90;58.00;;;;;;5052886;28;19935;-74
2022/07/31 11:47:08;;;;;;;;;;;31.60;58.00;;;;;;5053666;28;20354;-74
2022/07/31 11:49:35;;;;;;;;;;;30.20;58.90;;;;;;5053443;28;20739;-74
2022/07/31 11:52:02;;;;;;;;;;;30.70;59.30;;;;;;5052776;28;19924;-75
2022/07/31 11:54:28;;;;;;;;;;;32.80;56.50;;;;;;5050417;28;19966;-75
2022/07/31 11:56:54;;;;;;;;;;;33.10;52.90;;;;;;5052802;28;19909;-75
2022/07/31 11:59:27;;;;;;;;;;;31.50;54.70;;;;;;5052904;28;19963;-76
2022/07/31 12:01:53;;;;;;;;;;;31.20;55.10;;;;;;5052608;28;19909;-75
2022/07/31 12:04:18;;;;;;;;;;;31.30;63.00;;;;;;5052420;28;19977;-75
2022/07/31 12:06:44;;;;;;;;;;;32.00;57.60;;;;;;5051770;28;19920;-75
2022/07/31 12:09:10;;;;;;;;;;;30.40;58.40;;;;;;5051162;28;20736;-75
2022/07/31 12:11:35;;;;;;;;;;;29.60;61.50;;;;;;5051043;28;19912;-75
2022/07/31 12:14:01;;;;;;;;;;;29.30;65.10;;;;;;5051198;28;19917;-75
2022/07/31 12:16:37;;;;;;;;;;;31.10;62.40;;;;;;5050870;28;19970;-75
2022/07/31 12:19:02;;;;;;;;;;;31.60;58.40;;;;;;5050822;28;20448;-76
2022/07/31 12:21:29;;;;;;;;;;;32.40;58.00;;;;;;5050491;28;19948;-76
2022/07/31 12:23:54;;;;;;;;;;;32.10;61.00;;;;;;5044917;28;19913;-75
2022/07/31 12:26:30;;;;;;;;;;;32.50;55.60;;;;;;5052168;28;22042;-75
2022/07/31 12:28:57;;;;;;;;;;;31.50;59.80;;;;;;5052108;28;19948;-76
2022/07/31 12:31:22;;;;;;;;;;;32.20;58.10;;;;;;5052088;28;20289;-76
2022/07/31 12:33:48;;;;;;;;;;;34.00;52.90;;;;;;5051352;28;19917;-76
2022/07/31 12:36:14;;;;;;;;;;;36.00;53.50;;;;;;5043832;28;19920;-76
2022/07/31 12:38:40;;;;;;;;;;;32.10;54.90;;;;;;5049269;28;20011;-76
2022/07/31 12:41:05;;;;;;;;;;;32.00;55.00;;;;;;5049597;28;19996;-76
2022/07/31 12:43:31;;;;;;;;;;;33.90;50.50;;;;;;5048761;28;19924;-76
2022/07/31 12:45:59;;;;;;;;;;;32.90;52.10;;;;;;5047931;28;19913;-76
2022/07/31 12:48:25;;;;;;;;;;;33.50;55.60;;;;;;5046105;28;19913;-76
2022/07/31 12:50:51;;;;;;;;;;;31.20;58.00;;;;;;5045435;28;19931;-76
2022/07/31 12:53:16;;;;;;;;;;;31.50;60.00;;;;;;5047690;28;19917;-75
2022/07/31 12:55:42;;;;;;;;;;;34.20;51.50;;;;;;5044972;28;19923;-76
2022/07/31 12:58:07;;;;;;;;;;;36.90;52.20;;;;;;5048403;28;19917;-76
2022/07/31 13:00:33;;;;;;;;;;;35.60;46.70;;;;;;5045849;28;19917;-76
2022/07/31 13:02:58;;;;;;;;;;;32.40;59.30;;;;;;5050438;28;19999;-76
2022/07/31 13:05:24;;;;;;;;;;;30.60;56.10;;;;;;5050328;28;19912;-76
2022/07/31 13:07:50;;;;;;;;;;;29.60;60.90;;;;;;5050433;28;20277;-76
2022/07/31 13:10:16;;;;;;;;;;;29.10;59.30;;;;;;5050184;28;20289;-75
2022/07/31 13:12:41;;;;;;;;;;;29.10;61.40;;;;;;5051172;28;19916;-76
2022/07/31 13:15:07;;;;;;;;;;;32.80;55.40;;;;;;5051000;28;19912;-76
2022/07/31 13:17:33;;;;;;;;;;;36.50;48.10;;;;;;5051521;28;19909;-76
2022/07/31 13:19:58;;;;;;;;;;;38.20;44.40;;;;;;5046607;28;19909;-76
2022/07/31 13:22:24;;;;;;;;;;;38.50;46.90;;;;;;5047398;28;19909;-76
2022/07/31 13:24:49;;;;;;;;;;;38.30;45.50;;;;;;5050675;28;19952;-76
2022/07/31 13:27:15;;;;;;;;;;;38.00;43.80;;;;;;5043861;28;20004;-76
2022/07/31 13:29:40;;;;;;;;;;;38.40;44.50;;;;;;5043992;28;19928;-76
2022/07/31 13:32:07;;;;;;;;;;;37.70;43.50;;;;;;5045722;28;19947;-76
2022/07/31 13:34:33;;;;;;;;;;;37.40;45.40;;;;;;5041165;28;20012;-76
2022/07/31 13:36:58;;;;;;;;;;;36.60;45.00;;;;;;5050941;28;19991;-76
2022/07/31 13:39:24;;;;;;;;;;;34.60;47.80;;;;;;5047607;28;19909;-76
2022/07/31 13:41:49;;;;;;;;;;;35.70;48.10;;;;;;5061820;28;20380;-76
2022/07/31 13:44:15;;;;;;;;;;;37.10;45.60;;;;;;5048573;28;19932;-76
2022/07/31 13:46:40;;;;;;;;;;;38.00;44.70;;;;;;5045389;28;19943;-76
2022/07/31 13:49:09;;;;;;;;;;;38.70;43.00;;;;;;5045068;28;20392;-77
2022/07/31 13:51:35;;;;;;;;;;;38.30;45.10;;;;;;5055558;28;19915;-77
2022/07/31 13:54:01;;;;;;;;;;;37.60;42.50;;;;;;5043113;28;20279;-77
2022/07/31 13:56:26;;;;;;;;;;;37.90;42.70;;;;;;5049316;28;19931;-77
2022/07/31 13:58:53;;;;;;;;;;;37.50;43.60;;;;;;5050608;28;19913;-77
2022/07/31 14:01:18;;;;;;;;;;;38.60;45.30;;;;;;5049928;28;19955;-77
2022/07/31 14:03:44;;;;;;;;;;;39.00;42.80;;;;;;5050499;28;19913;-77
2022/07/31 14:06:09;;;;;;;;;;;39.30;43.40;;;;;;5050915;28;20370;-76
2022/07/31 14:08:35;;;;;;;;;;;39.50;44.00;;;;;;5050747;28;19917;-76
2022/07/31 14:11:00;;;;;;;;;;;38.90;42.80;;;;;;5049776;28;19917;-76
2022/07/31 14:13:27;;;;;;;;;;;39.00;43.30;;;;;;5048919;28;19919;-76